createdAt,value
2022-08-09T00:01:16.609Z,93625.50
2022-08-09T00:04:00.406Z,93622.72
2022-08-09T00:06:32.474Z,93615.69
2022-08-09T00:09:04.036Z,93625.28
2022-08-09T00:11:58.441Z,93619.31
2022-08-09T00:14:22.074Z,93616.22
2022-08-09T00:17:04.316Z,93622.97
2022-08-09T00:19:34.071Z,93615.47
2022-08-09T00:22:03.487Z,93614.87
2022-08-09T00:24:32.596Z,93626.09
2022-08-09T00:27:01.457Z,93629.84
2022-08-09T00:30:10.290Z,93627.34
2022-08-09T00:32:26.793Z,93626.38
2022-08-09T00:34:58.613Z,93627.53
2022-08-09T00:37:30.187Z,93628.28
2022-08-09T00:40:09.206Z,93625.75
2022-08-09T00:44:11.856Z,93637.63
2022-08-09T00:45:31.162Z,93633.12
2022-08-09T00:48:05.607Z,93625.06
2022-08-09T00:50:33.525Z,93639.66
2022-08-09T00:53:10.445Z,93634.00
2022-08-09T00:56:04.193Z,93625.28
2022-08-09T00:58:31.660Z,93643.09
2022-08-09T01:00:59.312Z,93642.56
2022-08-09T01:03:46.797Z,93646.31
2022-08-09T01:06:19.115Z,93646.31
2022-08-09T01:08:56.103Z,93644.87
2022-08-09T01:11:29.512Z,93655.72
2022-08-09T01:14:23.647Z,93657.84
2022-08-09T01:16:55.604Z,93655.97
2022-08-09T01:19:42.716Z,93662.69
2022-08-09T01:22:35.413Z,93652.66
2022-08-09T01:25:12.593Z,93643.19
2022-08-09T01:27:42.023Z,93646.94
2022-08-09T01:30:28.520Z,93645.31
2022-08-09T01:33:00.321Z,93649.56
2022-08-09T01:35:37.914Z,93650.59
2022-08-09T01:38:15.849Z,93652.87
2022-08-09T01:41:04.984Z,93641.22
2022-08-09T01:43:51.693Z,93636.50
2022-08-09T01:46:24.566Z,93623.28
2022-08-09T01:49:10.835Z,93614.25
2022-08-09T01:51:53.056Z,93618.94
2022-08-09T01:54:26.192Z,93614.87
2022-08-09T01:56:56.775Z,93610.69
2022-08-09T01:59:24.570Z,93611.19
2022-08-09T02:02:03.148Z,93603.94
2022-08-09T02:04:35.632Z,93605.56
2022-08-09T02:07:15.557Z,93605.19
2022-08-09T02:10:07.801Z,93606.75
2022-08-09T02:12:36.015Z,93605.28
2022-08-09T02:15:07.636Z,93607.19
2022-08-09T02:18:01.498Z,93606.22
2022-08-09T02:20:32.913Z,93612.00
2022-08-09T02:23:12.177Z,93610.66
2022-08-09T02:25:52.755Z,93606.97
2022-08-09T02:28:35.430Z,93604.75
2022-08-09T02:31:07.681Z,93598.41
2022-08-09T02:34:06.543Z,93599.44
2022-08-09T02:36:36.178Z,93599.94
2022-08-09T02:39:14.620Z,93591.75
2022-08-09T02:41:57.944Z,93602.03
2022-08-09T02:44:30.024Z,93604.91
2022-08-09T02:47:02.380Z,93600.69
2022-08-09T02:49:38.857Z,93612.53
2022-08-09T02:52:14.717Z,93609.97
2022-08-09T02:54:54.734Z,93607.38
2022-08-09T02:57:26.916Z,93606.00
2022-08-09T03:00:21.526Z,93607.28
2022-08-09T03:02:58.613Z,93600.44
2022-08-09T03:05:34.340Z,93597.94
2022-08-09T03:08:04.874Z,93603.47
2022-08-09T03:10:36.226Z,93603.94
2022-08-09T03:13:08.586Z,93607.94
2022-08-09T03:15:40.390Z,93606.09
2022-08-09T03:18:31.122Z,93602.66
2022-08-09T03:20:59.659Z,93598.66
2022-08-09T03:23:27.156Z,93613.87
2022-08-09T03:26:03.477Z,93607.56
2022-08-09T03:28:34.059Z,93610.25
2022-08-09T03:31:10.226Z,93600.56
2022-08-09T03:33:52.970Z,93603.72
2022-08-09T03:36:27.764Z,93611.63
2022-08-09T03:38:57.201Z,93608.41
2022-08-09T03:41:44.805Z,93620.41
2022-08-09T03:44:13.345Z,93614.25
2022-08-09T03:46:44.546Z,93620.66
2022-08-09T03:49:17.499Z,93611.19
2022-08-09T03:51:58.261Z,93614.34
2022-08-09T03:54:31.293Z,93619.38
2022-08-09T03:57:04.220Z,93615.88
2022-08-09T03:59:53.568Z,93620.94
2022-08-09T04:02:26.574Z,93621.44
2022-08-09T04:04:58.649Z,93623.81
2022-08-09T04:07:33.790Z,93628.16
2022-08-09T04:10:20.387Z,93626.06
2022-08-09T04:12:49.754Z,93623.91
2022-08-09T04:15:42.611Z,93627.84
2022-08-09T04:18:08.032Z,93633.88
2022-08-09T04:20:36.718Z,93624.69
2022-08-09T04:23:09.915Z,93624.62
2022-08-09T04:25:38.583Z,93625.19
2022-08-09T04:28:06.518Z,93628.09
2022-08-09T04:30:33.895Z,93636.03
2022-08-09T04:33:02.083Z,93632.28
2022-08-09T04:35:29.593Z,93632.50
2022-08-09T04:38:03.536Z,93639.63
2022-08-09T04:40:48.451Z,93636.37
2022-08-09T04:43:25.205Z,93631.66
2022-08-09T04:45:54.400Z,93646.22
2022-08-09T04:48:23.851Z,93641.75
2022-08-09T04:51:01.143Z,93641.44
2022-08-09T04:53:29.183Z,93647.97
2022-08-09T04:55:59.887Z,93643.00
2022-08-09T04:58:29.086Z,93639.47
2022-08-09T05:01:00.250Z,93640.72
2022-08-09T05:03:40.859Z,93640.19
2022-08-09T05:06:26.880Z,93641.41
2022-08-09T05:09:00.713Z,93638.53
2022-08-09T05:11:35.361Z,93643.66
2022-08-09T05:14:06.151Z,93634.84
2022-08-09T05:16:43.440Z,93641.81
2022-08-09T05:19:15.144Z,93637.94
2022-08-09T05:21:47.333Z,93632.06
2022-08-09T05:24:24.836Z,93630.00
2022-08-09T05:26:53.452Z,93638.47
2022-08-09T05:29:24.140Z,93640.38
2022-08-09T05:32:02.484Z,93639.63
2022-08-09T05:34:32.589Z,93643.03
2022-08-09T05:37:05.979Z,93644.50
2022-08-09T05:39:43.602Z,93645.88
2022-08-09T05:42:17.509Z,93638.84
2022-08-09T05:44:51.067Z,93639.72
2022-08-09T05:47:22.928Z,93636.13
2022-08-09T05:50:30.611Z,93638.28
2022-08-09T05:52:44.525Z,93639.16
2022-08-09T05:55:21.810Z,93635.00
2022-08-09T05:57:57.446Z,93632.56
2022-08-09T06:00:29.563Z,93638.72
2022-08-09T06:02:59.641Z,93633.25
2022-08-09T06:05:50.637Z,93632.53
2022-08-09T06:08:19.695Z,93631.44
2022-08-09T06:10:57.028Z,93634.09
2022-08-09T06:13:28.363Z,93627.94
2022-08-09T06:16:05.317Z,93621.03
2022-08-09T06:18:35.383Z,93629.63
2022-08-09T06:21:05.700Z,93626.47
2022-08-09T06:23:57.491Z,93626.94
2022-08-09T06:26:22.779Z,93627.31
2022-08-09T06:29:00.368Z,93623.28
2022-08-09T06:31:39.431Z,93624.34
2022-08-09T06:34:22.655Z,93626.97
2022-08-09T06:36:59.574Z,93620.34
2022-08-09T06:39:48.299Z,93624.19
2022-08-09T06:42:30.632Z,93626.88
2022-08-09T06:46:03.350Z,93622.97
2022-08-09T06:48:00.496Z,93619.72
2022-08-09T06:50:31.121Z,93622.03
2022-08-09T06:53:00.991Z,93622.06
2022-08-09T06:55:33.893Z,93615.03
2022-08-09T06:58:04.475Z,93612.81
2022-08-09T07:00:52.719Z,93612.41
2022-08-09T07:03:27.796Z,93610.53
2022-08-09T07:06:03.788Z,93609.88
2022-08-09T07:08:37.053Z,93603.06
2022-08-09T07:11:06.947Z,93606.09
2022-08-09T07:13:45.248Z,93605.31
2022-08-09T07:16:42.092Z,93601.09
2022-08-09T07:19:15.727Z,93594.34
2022-08-09T07:21:57.699Z,93602.06
2022-08-09T07:24:40.043Z,93598.47
2022-08-09T07:27:27.024Z,93604.22
2022-08-09T07:30:01.347Z,93596.09
2022-08-09T07:32:32.355Z,93596.06
2022-08-09T07:35:10.073Z,93594.69
2022-08-09T07:37:43.542Z,93596.13
2022-08-09T07:40:17.468Z,93594.47
2022-08-09T07:42:55.543Z,93595.19
2022-08-09T07:45:40.344Z,93599.78
2022-08-09T07:48:28.498Z,93586.84
2022-08-09T07:51:09.041Z,93597.72
2022-08-09T07:54:07.390Z,93593.97
2022-08-09T07:56:45.170Z,93588.09
2022-08-09T07:59:25.667Z,93589.69
2022-08-09T08:02:09.335Z,93598.22
2022-08-09T08:04:40.047Z,93602.88
2022-08-09T08:07:15.448Z,93596.16
2022-08-09T08:10:08.560Z,93592.19
2022-08-09T08:12:45.133Z,93589.13
2022-08-09T08:15:24.020Z,93595.94
2022-08-09T08:17:58.598Z,93589.75
2022-08-09T08:20:32.280Z,93582.03
2022-08-09T08:23:16.853Z,93566.13
2022-08-09T08:25:53.964Z,93568.94
2022-08-09T08:28:35.871Z,93566.94
2022-08-09T08:31:13.789Z,93584.59
2022-08-09T08:33:52.605Z,93577.66
2022-08-09T08:36:29.725Z,93574.50
2022-08-09T08:39:00.188Z,93576.69
2022-08-09T08:41:41.799Z,93571.31
2022-08-09T08:44:27.353Z,93570.47
2022-08-09T08:47:04.886Z,93562.41
2022-08-09T08:49:48.358Z,93566.81
2022-08-09T08:52:53.033Z,93564.12
2022-08-09T08:55:07.521Z,93562.31
2022-08-09T08:57:37.628Z,93565.16
2022-08-09T09:00:17.049Z,93559.38
2022-08-09T09:03:08.823Z,93557.25
2022-08-09T09:05:59.987Z,93541.59
2022-08-09T09:08:40.402Z,93545.94
2022-08-09T09:11:13.660Z,93550.41
2022-08-09T09:13:57.274Z,93546.53
2022-08-09T09:16:32.208Z,93540.78
2022-08-09T09:21:58.284Z,93537.44
2022-08-09T09:24:33.031Z,93529.59
2022-08-09T09:27:03.353Z,93536.56
2022-08-09T09:30:12.133Z,93528.22
2022-08-09T09:32:34.918Z,93534.72
2022-08-09T09:35:10.578Z,93528.56
2022-08-09T09:37:41.650Z,93523.09
2022-08-09T09:40:11.526Z,93523.91
2022-08-09T09:42:39.649Z,93519.56
2022-08-09T09:45:25.539Z,93525.66
2022-08-09T09:47:56.684Z,93526.69
2022-08-09T09:50:49.637Z,93521.06
2022-08-09T09:53:57.500Z,93520.03
2022-08-09T09:56:30.921Z,93507.28
2022-08-09T09:59:00.116Z,93532.41
2022-08-09T10:01:37.359Z,93525.62
2022-08-09T10:04:23.111Z,93526.28
2022-08-09T10:06:58.794Z,93524.44
2022-08-09T10:09:54.860Z,93524.50
2022-08-09T10:12:28.335Z,93529.19
2022-08-09T10:15:50.670Z,93524.44
2022-08-09T10:18:12.036Z,93518.97
2022-08-09T10:20:45.082Z,93519.09
2022-08-09T10:23:17.244Z,93519.53
2022-08-09T10:26:08.020Z,93506.41
2022-08-09T10:28:38.838Z,93508.81
2022-08-09T10:34:08.337Z,93506.09
2022-08-09T10:36:40.230Z,93511.06
2022-08-09T10:39:15.523Z,93513.56
2022-08-09T10:41:48.328Z,93516.56
2022-08-09T10:44:21.696Z,93521.84
2022-08-09T10:48:17.314Z,93525.44
2022-08-09T10:50:57.071Z,93513.19
2022-08-09T10:54:04.974Z,93516.41
2022-08-09T10:56:35.773Z,93514.19
2022-08-09T10:59:31.313Z,93508.53
2022-08-09T11:03:10.824Z,93499.94
2022-08-09T11:05:25.105Z,93500.19
2022-08-09T11:08:43.579Z,93490.94
2022-08-09T11:11:17.862Z,93499.19
2022-08-09T11:13:49.787Z,93506.91
2022-08-09T11:16:38.166Z,93490.84
2022-08-09T11:19:10.525Z,93492.91
2022-08-09T11:22:10.827Z,93477.16
2022-08-09T11:25:04.713Z,93492.06
2022-08-09T11:28:02.855Z,93488.53
2022-08-09T11:30:32.975Z,93500.91
2022-08-09T11:33:07.903Z,93503.53
2022-08-09T11:35:49.683Z,93497.06
2022-08-09T11:38:22.067Z,93501.34
2022-08-09T11:40:56.575Z,93496.09
2022-08-09T11:43:32.238Z,93503.56
2022-08-09T11:46:05.829Z,93489.50
2022-08-09T11:48:49.070Z,93488.97
2022-08-09T11:52:56.979Z,93485.72
2022-08-09T11:54:27.951Z,93488.38
2022-08-09T11:58:00.823Z,93481.34
2022-08-09T12:00:31.031Z,93478.56
2022-08-09T12:03:50.271Z,93469.69
2022-08-09T12:05:52.256Z,93485.34
2022-08-09T12:08:22.663Z,93484.97
2022-08-09T12:10:53.773Z,93475.75
2022-08-09T12:14:08.035Z,93482.66
2022-08-09T12:16:38.247Z,93483.16
2022-08-09T12:19:09.480Z,93482.72
2022-08-09T12:21:48.484Z,93486.00
2022-08-09T12:24:24.363Z,93476.66
2022-08-09T12:29:10.493Z,93476.47
2022-08-09T12:29:58.615Z,93481.38
2022-08-09T12:32:32.882Z,93472.44
2022-08-09T12:35:05.624Z,93476.00
2022-08-09T12:37:50.426Z,93472.06
2022-08-09T12:40:23.350Z,93465.31
2022-08-09T12:42:53.976Z,93457.19
2022-08-09T12:45:34.649Z,93449.50
2022-08-09T12:48:20.401Z,93446.63
2022-08-09T12:50:59.362Z,93439.97
2022-08-09T12:53:37.211Z,93450.81
2022-08-09T12:56:44.282Z,93439.28
2022-08-09T12:59:12.153Z,93431.53
2022-08-09T13:01:48.823Z,93430.72
2022-08-09T13:04:36.319Z,93420.25
2022-08-09T13:07:19.383Z,93415.22
2022-08-09T13:09:55.345Z,93410.78
2022-08-09T13:12:24.222Z,93409.31
2022-08-09T13:14:55.075Z,93399.56
2022-08-09T13:17:44.374Z,93411.19
2022-08-09T13:20:18.902Z,93403.84
2022-08-09T13:23:01.762Z,93408.87
2022-08-09T13:25:43.569Z,93411.28
2022-08-09T13:28:33.807Z,93409.72
2022-08-09T13:32:15.468Z,93408.50
2022-08-09T13:33:59.140Z,93412.41
2022-08-09T13:36:40.888Z,93405.63
2022-08-09T13:41:19.119Z,93413.22
2022-08-09T13:42:12.080Z,93409.03
2022-08-09T13:44:42.797Z,93420.25
2022-08-09T13:47:33.377Z,93417.63
2022-08-09T13:50:08.676Z,93425.00
2022-08-09T13:52:48.281Z,93421.41
2022-08-09T13:55:17.554Z,93419.94
2022-08-09T13:57:56.033Z,93420.41
2022-08-09T14:00:28.319Z,93409.97
2022-08-09T14:03:03.864Z,93424.81
2022-08-09T14:06:00.033Z,93406.38
2022-08-09T14:08:31.740Z,93392.16
2022-08-09T14:11:01.435Z,93402.91
2022-08-09T14:14:22.045Z,93401.06
2022-08-09T14:16:28.219Z,93396.66
2022-08-09T14:18:58.419Z,93395.09
2022-08-09T14:21:29.575Z,93409.19
2022-08-09T14:24:01.256Z,93402.81
2022-08-09T14:26:39.162Z,93400.97
2022-08-09T14:30:03.891Z,93397.09
2022-08-09T14:31:57.480Z,93399.16
2022-08-09T14:34:27.191Z,93402.22
2022-08-09T14:37:06.758Z,93403.13
2022-08-09T14:39:47.173Z,93390.03
2022-08-09T14:42:28.746Z,93391.97
2022-08-09T14:46:40.279Z,93399.87
2022-08-09T14:47:59.379Z,93393.37
2022-08-09T14:50:34.212Z,93406.25
2022-08-09T14:53:13.006Z,93395.59
2022-08-09T14:55:50.274Z,93394.81
2022-08-09T14:58:19.192Z,93397.03
2022-08-09T15:00:48.527Z,93392.47
2022-08-09T15:03:22.951Z,93395.00
2022-08-09T15:05:59.742Z,93390.72
2022-08-09T15:08:32.316Z,93386.91
2022-08-09T15:11:01.238Z,93387.66
2022-08-09T15:13:56.663Z,93383.09
2022-08-09T15:16:20.258Z,93383.03
2022-08-09T15:18:49.320Z,93376.47
2022-08-09T15:21:55.920Z,93374.50
2022-08-09T15:24:12.996Z,93378.94
2022-08-09T15:26:45.869Z,93379.97
2022-08-09T15:30:58.947Z,93371.34
2022-08-09T15:32:01.910Z,93369.19
2022-08-09T15:34:34.277Z,93366.50
2022-08-09T15:37:04.104Z,93361.69
2022-08-09T15:39:48.751Z,93359.78
2022-08-09T15:42:19.818Z,93362.09
2022-08-09T15:44:50.197Z,93361.75
2022-08-09T15:47:22.626Z,93363.22
2022-08-09T15:50:04.632Z,93365.91
2022-08-09T15:52:34.536Z,93372.44
2022-08-09T15:55:03.280Z,93386.97
2022-08-09T15:57:34.492Z,93381.47
2022-08-09T16:00:13.798Z,93379.22
2022-08-09T16:02:53.533Z,93397.00
2022-08-09T16:05:23.177Z,93394.63
2022-08-09T16:07:51.157Z,93396.78
2022-08-09T16:10:55.157Z,93394.50
2022-08-09T16:13:21.154Z,93397.72
2022-08-09T16:16:11.343Z,93407.37
2022-08-09T16:18:44.683Z,93393.00
2022-08-09T16:21:17.597Z,93411.03
2022-08-09T16:23:58.597Z,93405.63
2022-08-09T16:26:34.023Z,93412.22
2022-08-09T16:29:11.098Z,93412.97
2022-08-09T16:32:17.965Z,93419.12
2022-08-09T16:34:55.197Z,93417.19
2022-08-09T16:37:54.917Z,93415.22
2022-08-09T16:40:13.628Z,93411.97
2022-08-09T16:42:45.422Z,93415.94
2022-08-09T16:45:17.638Z,93417.81
2022-08-09T16:48:41.088Z,93417.91
2022-08-09T16:50:34.700Z,93413.91
2022-08-09T16:53:03.335Z,93420.91
2022-08-09T16:55:57.861Z,93437.63
2022-08-09T16:58:21.500Z,93432.88
2022-08-09T17:00:49.528Z,93438.47
2022-08-09T17:03:22.178Z,93441.13
2022-08-09T17:06:07.687Z,93442.00
2022-08-09T17:09:01.659Z,93444.44
2022-08-09T17:11:40.742Z,93452.16
2022-08-09T17:14:26.738Z,93453.81
2022-08-09T17:17:00.160Z,93444.19
2022-08-09T17:20:05.074Z,93443.81
2022-08-09T17:22:29.010Z,93450.34
2022-08-09T17:25:03.495Z,93441.03
2022-08-09T17:27:37.539Z,93440.91
2022-08-09T17:30:07.166Z,93448.59
2022-08-09T17:32:44.408Z,93453.75
2022-08-09T17:35:14.508Z,93459.34
2022-08-09T17:38:02.116Z,93463.91
2022-08-09T17:40:32.030Z,93469.75
2022-08-09T17:43:10.880Z,93471.72
2022-08-09T17:46:02.696Z,93474.16
2022-08-09T17:48:32.733Z,93480.38
2022-08-09T17:51:10.305Z,93482.00
2022-08-09T17:53:51.780Z,93492.87
2022-08-09T17:56:21.828Z,93482.34
2022-08-09T17:59:03.375Z,93484.13
2022-08-09T18:01:58.055Z,93486.00
2022-08-09T18:04:25.037Z,93491.19
2022-08-09T18:06:55.667Z,93491.22
2022-08-09T18:09:40.792Z,93492.13
2022-08-09T18:12:17.521Z,93504.63
2022-08-09T18:14:55.185Z,93511.47
2022-08-09T18:18:03.924Z,93512.78
2022-08-09T18:20:55.323Z,93519.44
2022-08-09T18:23:04.823Z,93525.97
2022-08-09T18:25:52.597Z,93533.09
2022-08-09T18:30:35.698Z,93538.75
2022-08-09T18:31:11.030Z,93546.94
2022-08-09T18:33:40.007Z,93550.59
2022-08-09T18:36:08.764Z,93544.59
2022-08-09T18:38:43.126Z,93551.38
2022-08-09T18:41:10.444Z,93544.28
2022-08-09T18:43:53.163Z,93546.78
2022-08-09T18:46:47.907Z,93549.50
2022-08-09T18:49:09.207Z,93553.91
2022-08-09T18:51:38.416Z,93557.94
2022-08-09T18:54:28.280Z,93560.19
2022-08-09T18:56:57.145Z,93556.34
2022-08-09T18:59:48.447Z,93561.53
2022-08-09T19:02:18.508Z,93567.19
2022-08-09T19:04:47.791Z,93572.69
2022-08-09T19:07:31.413Z,93568.25
2022-08-09T19:10:16.602Z,93578.00
2022-08-09T19:12:59.531Z,93577.56
2022-08-09T19:15:29.313Z,93582.28
2022-08-09T19:17:58.541Z,93587.94
2022-08-09T19:20:26.700Z,93586.72
2022-08-09T19:23:02.858Z,93583.84
2022-08-09T19:26:01.285Z,93587.62
2022-08-09T19:28:28.507Z,93592.16
2022-08-09T19:30:56.479Z,93590.09
2022-08-09T19:33:24.770Z,93591.25
2022-08-09T19:35:58.454Z,93596.41
2022-08-09T19:38:27.725Z,93585.69
2022-08-09T19:40:59.793Z,93591.97
2022-08-09T19:44:02.088Z,93594.41
2022-08-09T19:46:17.006Z,93592.94
2022-08-09T19:50:09.150Z,93603.59
2022-08-09T19:51:56.096Z,93599.59
2022-08-09T19:54:25.350Z,93601.50
2022-08-09T19:56:53.344Z,93591.84
2022-08-09T19:59:58.443Z,93590.97
2022-08-09T20:02:15.789Z,93598.34
2022-08-09T20:04:59.020Z,93595.62
2022-08-09T20:07:56.627Z,93591.50
2022-08-09T20:10:17.660Z,93601.00
2022-08-09T20:12:49.825Z,93600.44
2022-08-09T20:16:36.455Z,93606.03
2022-08-09T20:18:08.350Z,93613.25
2022-08-09T20:20:37.678Z,93616.09
2022-08-09T20:23:06.898Z,93613.41
2022-08-09T20:25:52.462Z,93609.78
2022-08-09T20:28:27.475Z,93606.34
2022-08-09T20:31:05.032Z,93607.94
2022-08-09T20:33:41.213Z,93602.12
2022-08-09T20:36:12.805Z,93603.59
2022-08-09T20:39:28.818Z,93594.00
2022-08-09T20:41:35.199Z,93605.25
2022-08-09T20:44:09.754Z,93611.00
2022-08-09T20:46:44.104Z,93608.81
2022-08-09T20:49:14.016Z,93618.41
2022-08-09T20:51:44.504Z,93616.84
2022-08-09T20:54:18.865Z,93612.16
2022-08-09T20:56:49.881Z,93609.25
2022-08-09T20:59:50.233Z,93612.94
2022-08-09T21:02:10.988Z,93610.12
2022-08-09T21:05:56.817Z,93608.16
2022-08-09T21:07:38.449Z,93610.25
2022-08-09T21:10:07.143Z,93607.09
2022-08-09T21:12:36.750Z,93608.91
2022-08-09T21:15:04.622Z,93604.25
2022-08-09T21:18:20.691Z,93612.53
2022-08-09T21:20:25.753Z,93611.47
2022-08-09T21:22:54.867Z,93611.88
2022-08-09T21:25:44.047Z,93620.66
2022-08-09T21:28:33.526Z,93621.91
2022-08-09T21:31:16.386Z,93616.53
2022-08-09T21:33:52.576Z,93620.91
2022-08-09T21:36:23.076Z,93624.13
2022-08-09T21:38:57.675Z,93620.19
2022-08-09T21:42:03.605Z,93621.22
2022-08-09T21:44:33.715Z,93628.97
2022-08-09T21:47:03.846Z,93625.81
2022-08-09T21:49:40.218Z,93624.50
2022-08-09T21:52:17.845Z,93623.16
2022-08-09T21:54:57.157Z,93627.72
2022-08-09T21:57:38.894Z,93630.97
2022-08-09T22:00:26.739Z,93631.03
2022-08-09T22:03:02.120Z,93618.19
2022-08-09T22:05:35.471Z,93614.28
2022-08-09T22:08:06.824Z,93611.16
2022-08-09T22:11:00.992Z,93609.53
2022-08-09T22:13:34.271Z,93620.75
2022-08-09T22:16:03.993Z,93610.88
2022-08-09T22:18:33.102Z,93614.53
2022-08-09T22:21:01.882Z,93609.00
2022-08-09T22:23:35.111Z,93608.91
2022-08-09T22:26:12.199Z,93612.03
2022-08-09T22:28:54.271Z,93606.47
2022-08-09T22:31:21.883Z,93598.75
2022-08-09T22:33:55.281Z,93602.03
2022-08-09T22:36:23.346Z,93610.81
2022-08-09T22:38:50.501Z,93606.87
2022-08-09T22:41:17.681Z,93599.97
2022-08-09T22:44:02.983Z,93605.22
2022-08-09T22:48:11.357Z,93601.09
2022-08-09T22:49:20.645Z,93608.75
2022-08-09T22:51:56.962Z,93602.28
2022-08-09T22:54:26.977Z,93611.72
2022-08-09T22:56:56.606Z,93610.25
2022-08-09T22:59:56.251Z,93621.37
2022-08-09T23:02:15.712Z,93617.41
2022-08-09T23:04:53.459Z,93615.97
2022-08-09T23:08:27.672Z,93613.59
2022-08-09T23:10:31.134Z,93610.47
2022-08-09T23:12:58.952Z,93611.19
2022-08-09T23:15:27.078Z,93609.62
2022-08-09T23:17:56.310Z,93598.81
2022-08-09T23:20:24.061Z,93608.53
2022-08-09T23:22:51.432Z,93615.38
2022-08-09T23:25:19.043Z,93612.25
2022-08-09T23:28:14.142Z,93618.75
2022-08-09T23:30:33.768Z,93614.78
2022-08-09T23:33:01.192Z,93611.31
2022-08-09T23:35:28.366Z,93606.87
2022-08-09T23:37:55.948Z,93603.69
2022-08-09T23:40:23.165Z,93609.31
2022-08-09T23:42:50.401Z,93606.53
2022-08-09T23:45:38.231Z,93609.88
2022-08-09T23:48:08.794Z,93604.59
2022-08-09T23:50:37.324Z,93609.34
2022-08-09T23:53:04.951Z,93607.44
2022-08-09T23:55:33.267Z,93606.75
2022-08-09T23:58:10.634Z,93600.84
